Time;durP1;ratioP1;P1;durP2;ratioP2;P2;SDS_P1;SDS_P2;PMS_P1;PMS_P2;Temp;Humidity;BMP_temperature;BMP_pressure;BME280_temperature;BME280_humidity;BME280_pressure;Samples;Min_cycle;Max_cycle;Signal;HPM_P1;HPM_P2
2023/01/22 00:01:51;;;;;;;;;;;;;;;4.97;83.91;103070.75;7363890;19;19933;-61
2023/01/22 00:04:18;;;;;;;;;;;;;;;4.95;83.91;103080.41;7360073;19;19929;-61
2023/01/22 00:06:45;;;;;;;;;;;;;;;4.94;83.94;103063.03;7358938;19;19952;-63
2023/01/22 00:09:14;;;;;;;;;;;;;;;4.93;83.95;103075.22;7359740;19;19923;-61
2023/01/22 00:11:41;;;;;;;;;;;;;;;4.92;84.21;103070.94;7358966;19;20305;-60
2023/01/22 00:14:08;;;;;;;;;;;;;;;4.92;84.07;103067.50;7360789;19;19927;-63
2023/01/22 00:16:35;;;;;;;;;;;;;;;4.92;84.12;103072.72;7359420;19;19918;-64
2023/01/22 00:19:02;;;;;;;;;;;;;;;4.91;84.36;103068.41;7361446;19;19911;-61
2023/01/22 00:21:29;;;;;;;;;;;;;;;4.88;84.47;103060.66;7361357;19;19914;-59
2023/01/22 00:23:56;;;;;;;;;;;;;;;4.83;84.19;103063.47;7362377;19;19952;-62
2023/01/22 00:26:23;;;;;;;;;;;;;;;4.81;84.41;103057.47;7361111;19;19927;-61
2023/01/22 00:28:51;;;;;;;;;;;;;;;4.79;84.38;103053.22;7360353;19;20450;-60
2023/01/22 00:31:18;;;;;;;;;;;;;;;4.72;84.32;103050.84;7359806;19;20352;-60
2023/01/22 00:33:46;;;;;;;;;;;;;;;4.68;84.78;103045.81;7360946;19;20797;-59
2023/01/22 00:36:14;;;;;;;;;;;;;;;4.68;85.21;103043.19;7358091;19;19982;-59
2023/01/22 00:38:41;;;;;;;;;;;;;;;4.68;85.53;103041.44;7357666;19;20521;-60
2023/01/22 00:41:08;;;;;;;;;;;;;;;4.64;85.39;103052.06;7360943;19;19919;-61
2023/01/22 00:43:37;;;;;;;;;;;;;;;4.64;85.71;103047.69;7358919;19;19938;-61
2023/01/22 00:46:04;;;;;;;;;;;;;;;4.63;85.89;103046.00;7359490;19;20344;-56
2023/01/22 00:48:31;;;;;;;;;;;;;;;4.61;85.75;103047.81;7357456;19;19923;-62
2023/01/22 00:50:58;;;;;;;;;;;;;;;4.61;85.81;103047.81;7361628;19;19919;-62
2023/01/22 00:53:25;;;;;;;;;;;;;;;4.58;85.83;103052.28;7359648;19;19931;-63
2023/01/22 00:55:54;;;;;;;;;;;;;;;4.60;86.29;103048.72;7359561;19;20368;-63
2023/01/22 00:58:22;;;;;;;;;;;;;;;4.58;86.21;103045.31;7362724;19;19930;-64
2023/01/22 01:00:49;;;;;;;;;;;;;;;4.60;86.69;103053.94;7360797;19;19919;-60
2023/01/22 01:05:47;;;;;;;;;;;;;;;4.62;86.54;103054.72;7356959;19;19926;-67
2023/01/22 01:08:14;;;;;;;;;;;;;;;4.60;86.39;103046.13;7361579;19;19923;-61
2023/01/22 01:10:41;;;;;;;;;;;;;;;4.58;86.17;103044.47;7356995;19;19923;-64
2023/01/22 01:13:08;;;;;;;;;;;;;;;4.57;86.28;103037.59;7359867;19;20037;-58
2023/01/22 01:15:35;;;;;;;;;;;;;;;4.53;86.21;103042.03;7359815;19;19921;-60
2023/01/22 01:18:02;;;;;;;;;;;;;;;4.49;86.10;103047.44;7359035;19;20641;-61
2023/01/22 01:20:29;;;;;;;;;;;;;;;4.50;86.94;103047.38;7357189;19;19919;-60
2023/01/22 01:22:56;;;;;;;;;;;;;;;4.52;86.95;103045.56;7358558;19;19922;-61
2023/01/22 01:25:23;;;;;;;;;;;;;;;4.54;87.27;103038.53;7358077;19;20264;-63
2023/01/22 01:27:50;;;;;;;;;;;;;;;4.56;87.28;103039.34;7358101;19;19915;-61
2023/01/22 01:30:17;;;;;;;;;;;;;;;4.59;87.98;103044.41;7356075;19;20542;-62
2023/01/22 01:32:45;;;;;;;;;;;;;;;4.59;87.76;103030.53;7362601;19;20180;-60
2023/01/22 01:35:12;;;;;;;;;;;;;;;4.57;87.63;103032.38;7366239;19;19999;-60
2023/01/22 01:37:39;;;;;;;;;;;;;;;4.55;87.30;103037.63;7365969;19;20301;-62
2023/01/22 01:40:06;;;;;;;;;;;;;;;4.52;87.14;103037.72;7359602;19;20372;-61
2023/01/22 01:42:34;;;;;;;;;;;;;;;4.47;87.41;103039.66;7366517;19;19998;-60
2023/01/22 01:45:04;;;;;;;;;;;;;;;4.48;87.54;103048.34;7364164;19;19974;-64
2023/01/22 01:47:34;;;;;;;;;;;;;;;4.43;86.99;103045.91;7364691;19;20252;-62
2023/01/22 01:50:01;;;;;;;;;;;;;;;4.36;86.28;103043.59;7364201;19;19926;-63
2023/01/22 01:52:28;;;;;;;;;;;;;;;4.34;86.67;103048.00;7367536;19;19932;-62
2023/01/22 01:54:56;;;;;;;;;;;;;;;4.28;86.59;103055.16;7364594;19;19925;-59
2023/01/22 01:57:26;;;;;;;;;;;;;;;4.22;86.34;103050.16;7364386;19;20236;-61
2023/01/22 01:59:53;;;;;;;;;;;;;;;4.18;86.86;103051.19;7365626;19;20912;-62
2023/01/22 02:02:20;;;;;;;;;;;;;;;4.13;86.85;103050.50;7363080;19;20325;-61
2023/01/22 02:04:48;;;;;;;;;;;;;;;4.12;87.39;103050.56;7366083;19;19914;-62
2023/01/22 02:07:15;;;;;;;;;;;;;;;4.12;87.80;103055.75;7365591;19;19978;-62
2023/01/22 02:09:42;;;;;;;;;;;;;;;4.12;88.25;103061.81;7361584;19;20368;-61
2023/01/22 02:12:09;;;;;;;;;;;;;;;4.11;88.34;103057.53;7363105;19;19937;-62
2023/01/22 02:14:38;;;;;;;;;;;;;;;4.08;87.82;103064.59;7363273;19;20331;-61
2023/01/22 02:17:07;;;;;;;;;;;;;;;4.02;87.85;103060.47;7364338;19;20804;-62
2023/01/22 02:19:34;;;;;;;;;;;;;;;4.03;87.93;103056.97;7364169;19;20277;-61
2023/01/22 02:22:01;;;;;;;;;;;;;;;4.04;87.99;103057.81;7368118;19;21676;-60
2023/01/22 02:24:29;;;;;;;;;;;;;;;3.99;87.76;103051.91;7365731;19;19926;-58
2023/01/22 02:26:56;;;;;;;;;;;;;;;3.98;87.98;103060.63;7362852;19;19947;-60
2023/01/22 02:29:25;;;;;;;;;;;;;;;3.94;87.73;103053.84;7362823;19;19919;-56
2023/01/22 02:31:52;;;;;;;;;;;;;;;3.90;87.77;103057.47;7367386;19;19926;-61
2023/01/22 02:34:23;;;;;;;;;;;;;;;3.85;88.02;103050.66;7362499;19;19957;-66
2023/01/22 02:36:50;;;;;;;;;;;;;;;3.83;88.16;103049.00;7364722;19;20272;-60
2023/01/22 02:39:17;;;;;;;;;;;;;;;3.82;88.61;103049.91;7362179;19;19915;-57
2023/01/22 02:41:44;;;;;;;;;;;;;;;3.80;88.88;103057.78;7359543;19;19915;-61
2023/01/22 02:44:11;;;;;;;;;;;;;;;3.80;89.00;103052.59;7361728;19;19955;-61
2023/01/22 02:46:38;;;;;;;;;;;;;;;3.80;89.22;103054.34;7363370;19;19922;-61
2023/01/22 02:49:05;;;;;;;;;;;;;;;3.77;88.84;103051.81;7360966;19;20561;-63
2023/01/22 02:51:32;;;;;;;;;;;;;;;3.74;88.84;103046.75;7363483;19;19928;-58
2023/01/22 02:53:59;;;;;;;;;;;;;;;3.74;89.02;103055.41;7360349;19;20305;-67
2023/01/22 02:56:26;;;;;;;;;;;;;;;3.77;89.43;103050.06;7361644;19;20460;-61
2023/01/22 02:58:53;;;;;;;;;;;;;;;3.79;89.45;103040.47;7362228;19;19971;-63
2023/01/22 03:01:21;;;;;;;;;;;;;;;3.81;89.58;103046.44;7363419;19;20761;-61
2023/01/22 03:03:51;;;;;;;;;;;;;;;3.81;89.57;103041.25;7361227;19;19943;-63
2023/01/22 03:06:20;;;;;;;;;;;;;;;3.78;89.26;103049.19;7362524;19;20580;-62
2023/01/22 03:08:49;;;;;;;;;;;;;;;3.75;89.15;103059.72;7361877;19;19915;-63
2023/01/22 03:11:16;;;;;;;;;;;;;;;3.72;88.54;103061.53;7359612;19;20508;-60
2023/01/22 03:21:14;;;;;;;;;;;;;;;3.65;89.13;103053.13;7362913;19;19918;-61
2023/01/22 03:23:44;;;;;;;;;;;;;;;3.63;89.09;103051.47;7361588;19;19919;-62
2023/01/22 03:26:11;;;;;;;;;;;;;;;3.61;89.12;103053.25;7359183;19;19931;-64
2023/01/22 03:28:38;;;;;;;;;;;;;;;3.59;89.24;103061.13;7364513;19;19925;-61
2023/01/22 03:31:05;;;;;;;;;;;;;;;3.57;89.21;103054.25;7359918;19;19922;-62
2023/01/22 03:33:32;;;;;;;;;;;;;;;3.55;89.02;103050.88;7361828;19;20304;-63
2023/01/22 03:36:01;;;;;;;;;;;;;;;3.52;88.87;103050.97;7360925;19;19951;-62
2023/01/22 03:38:28;;;;;;;;;;;;;;;3.52;89.08;103056.19;7361512;19;19927;-64
2023/01/22 03:40:57;;;;;;;;;;;;;;;3.48;89.01;103059.78;7358771;19;19951;-62
2023/01/22 03:43:24;;;;;;;;;;;;;;;3.44;88.87;103048.66;7362527;19;19931;-61
2023/01/22 03:45:51;;;;;;;;;;;;;;;3.44;88.88;103053.84;7356474;19;19987;-61
2023/01/22 03:48:18;;;;;;;;;;;;;;;3.42;89.04;103053.88;7360683;19;19934;-60
2023/01/22 03:50:45;;;;;;;;;;;;;;;3.43;88.97;103049.53;7359281;19;20032;-61
2023/01/22 03:53:12;;;;;;;;;;;;;;;3.49;89.70;103053.69;7362639;19;20268;-63
2023/01/22 03:55:39;;;;;;;;;;;;;;;3.52;89.96;103046.63;7359427;19;20372;-61
2023/01/22 03:58:06;;;;;;;;;;;;;;;3.55;89.97;103046.53;7360794;19;19951;-62
2023/01/22 04:00:33;;;;;;;;;;;;;;;3.55;89.70;103049.13;7363112;19;20495;-60
2023/01/22 04:02:59;;;;;;;;;;;;;;;3.56;89.86;103053.41;7361214;19;20406;-62
2023/01/22 04:05:26;;;;;;;;;;;;;;;3.59;90.30;103045.53;7359983;19;20430;-61
2023/01/22 04:07:53;;;;;;;;;;;;;;;3.60;89.98;103054.19;7361439;19;19923;-63
2023/01/22 04:10:20;;;;;;;;;;;;;;;3.59;89.85;103042.91;7358900;19;19919;-59
2023/01/22 04:12:47;;;;;;;;;;;;;;;3.60;90.18;103038.56;7360146;19;20408;-62
2023/01/22 04:15:14;;;;;;;;;;;;;;;3.59;90.32;103045.53;7361634;19;19919;-61
2023/01/22 04:17:41;;;;;;;;;;;;;;;3.62;90.04;103047.16;7361659;19;20558;-64
2023/01/22 04:20:08;;;;;;;;;;;;;;;3.56;89.73;103035.19;7362527;19;20262;-61
2023/01/22 04:22:35;;;;;;;;;;;;;;;3.54;89.42;103036.16;7361511;19;19918;-62
2023/01/22 04:25:03;;;;;;;;;;;;;;;3.51;89.31;103041.47;7362053;19;20277;-59
2023/01/22 04:27:29;;;;;;;;;;;;;;;3.44;88.91;103039.09;7360514;19;19926;-61
2023/01/22 04:29:56;;;;;;;;;;;;;;;3.38;88.15;103041.91;7361824;19;19926;-62
2023/01/22 04:32:23;;;;;;;;;;;;;;;3.33;87.91;103041.19;7360124;19;20336;-61
2023/01/22 04:34:50;;;;;;;;;;;;;;;3.28;87.91;103045.69;7360408;19;19927;-62
2023/01/22 04:37:17;;;;;;;;;;;;;;;3.24;88.26;103043.25;7360602;19;21062;-62
2023/01/22 04:39:44;;;;;;;;;;;;;;;3.20;88.37;103037.28;7357062;19;19930;-62
2023/01/22 04:42:10;;;;;;;;;;;;;;;3.19;88.54;103035.59;7356773;19;19995;-61
2023/01/22 04:44:37;;;;;;;;;;;;;;;3.16;88.01;103037.44;7360239;19;20026;-62
2023/01/22 04:47:04;;;;;;;;;;;;;;;3.13;87.80;103040.16;7359843;19;19953;-61
2023/01/22 04:49:31;;;;;;;;;;;;;;;3.09;88.21;103034.22;7359097;19;19923;-60
2023/01/22 04:51:58;;;;;;;;;;;;;;;3.10;88.01;103040.25;7359576;19;19930;-61
2023/01/22 04:54:25;;;;;;;;;;;;;;;3.10;88.63;103035.88;7358979;19;20030;-60
2023/01/22 04:56:52;;;;;;;;;;;;;;;3.13;88.61;103035.81;7358551;19;20554;-61
2023/01/22 04:59:19;;;;;;;;;;;;;;;3.15;88.26;103036.59;7361272;19;19918;-60
2023/01/22 05:01:46;;;;;;;;;;;;;;;3.17;87.86;103039.16;7360766;19;19942;-63
2023/01/22 05:04:14;;;;;;;;;;;;;;;3.15;87.66;103035.75;7360320;19;20889;-60
2023/01/22 05:06:40;;;;;;;;;;;;;;;3.15;87.93;103038.38;7357572;19;19947;-63
2023/01/22 05:09:07;;;;;;;;;;;;;;;3.14;87.86;103044.47;7357944;19;19922;-62
2023/01/22 05:11:34;;;;;;;;;;;;;;;3.14;88.02;103039.25;7357216;19;19919;-61
2023/01/22 05:14:01;;;;;;;;;;;;;;;3.12;87.71;103041.03;7361213;19;20034;-61
2023/01/22 05:16:28;;;;;;;;;;;;;;;3.15;88.11;103043.56;7358061;19;19933;-61
2023/01/22 05:18:55;;;;;;;;;;;;;;;3.15;88.50;103041.78;7360157;19;20488;-60
2023/01/22 05:21:21;;;;;;;;;;;;;;;3.13;88.21;103047.94;7358656;19;19919;-63
2023/01/22 05:23:48;;;;;;;;;;;;;;;3.11;88.66;103044.53;7358036;19;19929;-61
2023/01/22 05:26:15;;;;;;;;;;;;;;;3.12;88.40;103038.44;7357009;19;19927;-63
2023/01/22 05:28:42;;;;;;;;;;;;;;;3.10;88.48;103042.88;7358803;19;19934;-60
2023/01/22 05:31:10;;;;;;;;;;;;;;;3.04;87.76;103043.91;7355046;19;19926;-60
2023/01/22 05:33:39;;;;;;;;;;;;;;;2.96;87.76;103040.69;7360630;19;20314;-57
2023/01/22 05:36:08;;;;;;;;;;;;;;;2.95;88.33;103038.97;7355581;19;19922;-61
2023/01/22 05:38:35;;;;;;;;;;;;;;;2.94;88.81;103039.91;7353498;19;19930;-62
2023/01/22 05:41:02;;;;;;;;;;;;;;;2.92;88.53;103046.88;7355535;19;19927;-58
2023/01/22 05:43:28;;;;;;;;;;;;;;;2.90;88.83;103048.69;7356856;19;20329;-62
2023/01/22 05:45:58;;;;;;;;;;;;;;;2.87;89.06;103039.25;7355790;19;20018;-62
2023/01/22 05:48:25;;;;;;;;;;;;;;;2.86;89.03;103047.94;7358096;19;19918;-62
2023/01/22 05:50:52;;;;;;;;;;;;;;;2.85;89.12;103048.81;7356917;19;19927;-61
2023/01/22 05:53:19;;;;;;;;;;;;;;;2.84;89.10;103052.34;7357786;19;20329;-60
2023/01/22 05:55:46;;;;;;;;;;;;;;;2.84;88.90;103052.34;7355383;19;20383;-59
2023/01/22 05:58:13;;;;;;;;;;;;;;;2.86;89.09;103058.31;7359291;19;19933;-62
2023/01/22 06:00:40;;;;;;;;;;;;;;;2.89;89.07;103052.19;7357243;19;19926;-62
2023/01/22 06:03:07;;;;;;;;;;;;;;;2.91;89.09;103055.59;7358138;19;20568;-61
2023/01/22 06:05:34;;;;;;;;;;;;;;;2.94;89.18;103055.50;7354846;19;19919;-60
2023/01/22 06:08:01;;;;;;;;;;;;;;;2.95;89.10;103045.03;7358487;19;19926;-60
2023/01/22 06:10:27;;;;;;;;;;;;;;;2.97;89.31;103050.19;7355901;19;19925;-60
2023/01/22 06:12:55;;;;;;;;;;;;;;;2.99;89.20;103049.25;7357460;19;20222;-60
2023/01/22 06:15:21;;;;;;;;;;;;;;;3.02;88.84;103045.69;7357400;19;21255;-61
2023/01/22 06:17:48;;;;;;;;;;;;;;;3.00;88.74;103044.88;7358843;19;19923;-62
2023/01/22 06:20:15;;;;;;;;;;;;;;;2.98;88.37;103044.94;7364619;19;20316;-61
2023/01/22 06:22:43;;;;;;;;;;;;;;;2.94;88.44;103045.97;7362791;19;20247;-61
2023/01/22 06:25:09;;;;;;;;;;;;;;;2.93;88.60;103036.44;7364427;19;20304;-60
2023/01/22 06:27:36;;;;;;;;;;;;;;;2.89;88.45;103031.41;7362489;19;20198;-61
2023/01/22 06:30:03;;;;;;;;;;;;;;;2.89;88.77;103026.19;7364891;19;19918;-70
2023/01/22 06:32:30;;;;;;;;;;;;;;;2.91;90.30;103027.84;7364491;19;19926;-62
2023/01/22 06:34:57;;;;;;;;;;;;;;;2.89;90.31;103024.47;7364293;19;19934;-62
2023/01/22 06:37:24;;;;;;;;;;;;;;;2.85;89.95;103025.44;7362927;19;19923;-60
2023/01/22 06:39:51;;;;;;;;;;;;;;;2.78;89.54;103026.53;7358440;19;19926;-58
2023/01/22 06:42:18;;;;;;;;;;;;;;;2.71;89.54;103034.56;7363283;19;20254;-61
2023/01/22 06:44:45;;;;;;;;;;;;;;;2.69;89.71;103034.63;7364519;19;20557;-59
2023/01/22 06:47:12;;;;;;;;;;;;;;;2.71;90.15;103038.00;7362581;19;19922;-60
2023/01/22 06:49:39;;;;;;;;;;;;;;;2.73;90.44;103038.81;7364285;19;21553;-61
2023/01/22 06:52:06;;;;;;;;;;;;;;;2.73;90.32;103032.78;7363027;19;19951;-60
2023/01/22 06:54:33;;;;;;;;;;;;;;;2.76;90.29;103038.72;7360208;19;19934;-64
2023/01/22 06:56:59;;;;;;;;;;;;;;;2.76;90.38;103037.88;7358909;19;19980;-61
2023/01/22 06:59:26;;;;;;;;;;;;;;;2.76;90.40;103038.72;7364035;19;19922;-62
2023/01/22 07:02:13;;;;;;;;;;;;;;;2.78;90.19;103038.69;7362045;19;19937;-61
2023/01/22 07:04:40;;;;;;;;;;;;;;;2.77;90.00;103035.22;7363004;19;19927;-60
2023/01/22 07:07:07;;;;;;;;;;;;;;;2.76;89.58;103041.31;7363702;19;19930;-62
2023/01/22 07:09:34;;;;;;;;;;;;;;;2.73;89.61;103044.03;7362242;19;19922;-63
2023/01/22 07:12:01;;;;;;;;;;;;;;;2.77;89.75;103050.81;7358879;19;19919;-61
2023/01/22 07:17:14;;;;;;;;;;;;;;;2.76;89.10;103054.31;7364288;19;19985;-59
2023/01/22 07:19:41;;;;;;;;;;;;;;;2.75;88.62;103054.34;7360542;19;19927;-61
2023/01/22 07:22:08;;;;;;;;;;;;;;;2.69;88.55;103055.41;7362903;19;19914;-62
2023/01/22 07:24:35;;;;;;;;;;;;;;;2.67;88.67;103056.34;7361516;19;19928;-63
2023/01/22 07:27:02;;;;;;;;;;;;;;;2.64;88.96;103062.50;7362350;19;19911;-61
2023/01/22 07:29:29;;;;;;;;;;;;;;;2.66;88.91;103058.09;7359552;19;19963;-60
2023/01/22 07:31:55;;;;;;;;;;;;;;;2.69;88.55;103067.56;7358983;19;19923;-60
2023/01/22 07:34:22;;;;;;;;;;;;;;;2.70;88.51;103064.03;7358275;19;19922;-61
2023/01/22 07:36:49;;;;;;;;;;;;;;;2.72;88.29;103067.44;7363865;19;19919;-61
2023/01/22 07:39:16;;;;;;;;;;;;;;;2.75;88.17;103067.34;7360615;19;19926;-60
2023/01/22 07:41:43;;;;;;;;;;;;;;;2.73;87.46;103074.34;7359567;19;19919;-61
2023/01/22 07:44:15;;;;;;;;;;;;;;;2.68;87.65;103068.44;7358540;19;22199;-60
2023/01/22 07:46:42;;;;;;;;;;;;;;;2.64;87.82;103074.63;7362086;19;21518;-61
2023/01/22 07:49:09;;;;;;;;;;;;;;;2.61;87.73;103074.72;7358540;19;19936;-60
2023/01/22 07:51:36;;;;;;;;;;;;;;;2.58;88.34;103076.53;7359325;19;20530;-61
2023/01/22 07:54:03;;;;;;;;;;;;;;;2.55;88.43;103070.53;7360285;19;20634;-62
2023/01/22 07:56:30;;;;;;;;;;;;;;;2.56;88.71;103070.50;7359583;19;19923;-61
2023/01/22 07:58:57;;;;;;;;;;;;;;;2.57;89.49;103060.97;7360780;19;19925;-61
2023/01/22 08:01:24;;;;;;;;;;;;;;;2.57;89.75;103063.56;7361791;19;19922;-63
2023/01/22 08:03:51;;;;;;;;;;;;;;;2.54;89.72;103064.50;7361022;19;19926;-59
2023/01/22 08:06:19;;;;;;;;;;;;;;;2.54;89.02;103068.84;7360463;19;19971;-60
2023/01/22 08:08:46;;;;;;;;;;;;;;;2.52;88.96;103068.91;7357921;19;19914;-62
2023/01/22 08:11:13;;;;;;;;;;;;;;;2.53;88.98;103072.34;7357919;19;20614;-61
2023/01/22 08:13:40;;;;;;;;;;;;;;;2.53;88.74;103075.81;7362347;19;19925;-60
2023/01/22 08:16:08;;;;;;;;;;;;;;;2.54;89.23;103082.69;7359256;19;20259;-60
2023/01/22 08:18:36;;;;;;;;;;;;;;;2.53;88.92;103077.56;7360673;19;20009;-62
2023/01/22 08:21:03;;;;;;;;;;;;;;;2.54;89.31;103074.88;7357738;19;19922;-62
2023/01/22 08:23:30;;;;;;;;;;;;;;;2.54;88.66;103094.81;7359555;19;19922;-62
2023/01/22 08:25:58;;;;;;;;;;;;;;;2.53;88.63;103095.75;7358618;19;19927;-60
2023/01/22 08:28:26;;;;;;;;;;;;;;;2.55;88.42;103097.38;7361851;19;19934;-60
2023/01/22 08:30:56;;;;;;;;;;;;;;;2.58;89.05;103105.09;7358805;19;19933;-59
2023/01/22 08:33:22;;;;;;;;;;;;;;;2.63;89.43;103101.50;7360371;19;19922;-61
2023/01/22 08:35:50;;;;;;;;;;;;;;;2.65;88.96;103104.91;7358593;19;19918;-58
2023/01/22 08:38:17;;;;;;;;;;;;;;;2.65;88.74;103105.75;7358944;19;20380;-62
2023/01/22 08:40:47;;;;;;;;;;;;;;;2.64;88.74;103117.06;7356062;19;21654;-60
2023/01/22 08:43:14;;;;;;;;;;;;;;;2.63;88.68;103112.75;7357376;19;19918;-62
2023/01/22 08:45:41;;;;;;;;;;;;;;;2.66;88.83;103117.84;7359664;19;19960;-59
2023/01/22 08:48:08;;;;;;;;;;;;;;;2.67;88.84;103116.09;7358448;19;20563;-59
2023/01/22 08:50:35;;;;;;;;;;;;;;;2.68;88.72;103110.88;7358543;19;19927;-60
2023/01/22 08:53:01;;;;;;;;;;;;;;;2.68;87.89;103118.66;7358366;19;19923;-61
2023/01/22 08:55:28;;;;;;;;;;;;;;;2.70;87.57;103122.06;7360606;19;20169;-60
2023/01/22 08:57:56;;;;;;;;;;;;;;;2.72;87.48;103122.88;7359837;19;19919;-62
2023/01/22 09:00:23;;;;;;;;;;;;;;;2.76;87.27;103134.03;7358763;19;19919;-59
2023/01/22 09:02:51;;;;;;;;;;;;;;;2.76;86.26;103128.81;7356159;19;20308;-62
2023/01/22 09:05:18;;;;;;;;;;;;;;;2.73;86.26;103128.94;7359754;19;19930;-60
2023/01/22 09:07:44;;;;;;;;;;;;;;;2.70;86.20;103129.00;7357803;19;19960;-59
2023/01/22 09:10:11;;;;;;;;;;;;;;;2.73;86.39;103131.53;7359539;19;20379;-61
2023/01/22 09:12:39;;;;;;;;;;;;;;;2.73;86.31;103137.56;7355101;19;19914;-60
2023/01/22 09:15:06;;;;;;;;;;;;;;;2.71;86.11;103134.16;7360087;19;19922;-60
2023/01/22 09:17:33;;;;;;;;;;;;;;;2.73;86.06;103131.53;7358705;19;19918;-62
2023/01/22 09:20:00;;;;;;;;;;;;;;;2.78;86.39;103127.03;7360700;19;20168;-59
2023/01/22 09:22:27;;;;;;;;;;;;;;;2.80;86.19;103141.69;7362381;19;19921;-63
2023/01/22 09:24:54;;;;;;;;;;;;;;;2.84;86.24;103135.50;7357063;19;20511;-60
2023/01/22 09:27:21;;;;;;;;;;;;;;;2.87;86.27;103132.81;7358387;19;20374;-59
2023/01/22 09:29:48;;;;;;;;;;;;;;;2.90;86.23;103131.84;7358832;19;19978;-61
2023/01/22 09:32:15;;;;;;;;;;;;;;;2.90;86.30;103137.06;7356934;19;20597;-63
2023/01/22 09:34:41;;;;;;;;;;;;;;;2.91;86.12;103131.81;7356009;19;20246;-60
2023/01/22 09:37:10;;;;;;;;;;;;;;;2.94;86.08;103125.69;7360215;19;19934;-59
2023/01/22 09:39:37;;;;;;;;;;;;;;;2.99;86.51;103123.81;7352851;19;19914;-60
2023/01/22 09:42:05;;;;;;;;;;;;;;;3.00;86.24;103130.69;7354849;19;19957;-60
2023/01/22 09:44:33;;;;;;;;;;;;;;;3.04;86.07;103131.47;7357690;19;19930;-60
2023/01/22 09:47:04;;;;;;;;;;;;;;;3.07;85.79;103132.19;7359000;19;20310;-62
2023/01/22 09:49:35;;;;;;;;;;;;;;;3.10;85.94;103123.47;7354387;19;19942;-62
2023/01/22 09:52:03;;;;;;;;;;;;;;;3.17;86.09;103125.81;7355460;19;20280;-62
2023/01/22 09:54:31;;;;;;;;;;;;;;;3.22;86.00;103121.31;7361826;19;19918;-61
2023/01/22 09:57:00;;;;;;;;;;;;;;;3.27;85.69;103135.03;7364970;19;19934;-61
2023/01/22 09:59:30;;;;;;;;;;;;;;;3.33;85.51;103134.00;7362392;19;19929;-62
2023/01/22 10:01:59;;;;;;;;;;;;;;;3.38;85.38;103129.50;7364851;19;19910;-61
2023/01/22 10:04:29;;;;;;;;;;;;;;;3.42;85.70;103138.88;7363557;19;19918;-60
2023/01/22 10:06:58;;;;;;;;;;;;;;;3.50;85.48;103139.50;7363826;19;19931;-61
2023/01/22 10:09:28;;;;;;;;;;;;;;;3.54;85.61;103137.66;7367845;19;19941;-63
2023/01/22 10:11:57;;;;;;;;;;;;;;;3.60;85.33;103148.72;7360497;19;19930;-60
2023/01/22 10:14:25;;;;;;;;;;;;;;;3.65;85.21;103141.63;7363794;19;20510;-62
2023/01/22 10:16:53;;;;;;;;;;;;;;;3.70;85.50;103137.09;7364451;19;19937;-62
2023/01/22 10:19:23;;;;;;;;;;;;;;;3.74;85.44;103138.69;7364552;19;20030;-62
2023/01/22 10:21:55;;;;;;;;;;;;;;;3.83;85.15;103145.34;7366523;19;19927;-62
2023/01/22 10:24:22;;;;;;;;;;;;;;;3.93;85.27;103140.66;7363909;19;20290;-60
2023/01/22 10:26:51;;;;;;;;;;;;;;;3.98;84.54;103142.22;7363636;19;19931;-61
2023/01/22 10:29:21;;;;;;;;;;;;;;;4.05;84.56;103142.84;7362906;19;19923;-63
2023/01/22 10:31:51;;;;;;;;;;;;;;;4.09;84.16;103136.63;7364150;19;20399;-59
2023/01/22 10:34:22;;;;;;;;;;;;;;;4.11;83.70;103138.28;7360450;19;19996;-63
2023/01/22 10:36:50;;;;;;;;;;;;;;;4.14;83.88;103134.72;7364158;19;19919;-61
2023/01/22 10:39:17;;;;;;;;;;;;;;;4.19;84.16;103140.59;7358088;19;19929;-63
2023/01/22 10:41:45;;;;;;;;;;;;;;;4.25;84.71;103135.19;7360230;19;19929;-62
2023/01/22 10:44:15;;;;;;;;;;;;;;;4.26;84.07;103139.50;7364147;19;19926;-64
2023/01/22 10:46:42;;;;;;;;;;;;;;;4.30;83.84;103135.88;7365335;19;20266;-57
2023/01/22 10:49:14;;;;;;;;;;;;;;;4.36;83.82;103140.88;7363152;19;20641;-62
2023/01/22 10:51:42;;;;;;;;;;;;;;;4.39;83.37;103145.09;7362573;19;19922;-63
2023/01/22 10:54:12;;;;;;;;;;;;;;;4.43;83.28;103146.69;7362923;19;19957;-61
2023/01/22 10:56:39;;;;;;;;;;;;;;;4.47;83.23;103143.91;7359771;19;21061;-63
2023/01/22 10:59:09;;;;;;;;;;;;;;;4.50;82.81;103146.44;7363055;19;19926;-64
2023/01/22 11:01:38;;;;;;;;;;;;;;;4.53;82.58;103146.31;7362616;19;19919;-62
2023/01/22 11:04:08;;;;;;;;;;;;;;;4.55;82.27;103149.72;7360905;19;19919;-65
2023/01/22 11:06:39;;;;;;;;;;;;;;;4.60;82.22;103145.19;7362457;19;19926;-62
2023/01/22 11:09:14;;;;;;;;;;;;;;;4.66;82.65;103142.34;7359652;19;20820;-61
2023/01/22 11:11:46;;;;;;;;;;;;;;;4.68;82.34;103143.13;7359831;19;20006;-60
2023/01/22 11:14:17;;;;;;;;;;;;;;;4.72;82.19;103139.50;7363237;19;20988;-58
2023/01/22 11:16:47;;;;;;;;;;;;;;;4.79;81.73;103136.66;7360791;19;19922;-62
2023/01/22 11:19:20;;;;;;;;;;;;;;;4.84;81.71;103130.34;7362826;19;19914;-63
2023/01/22 11:22:03;;;;;;;;;;;;;;;4.90;81.56;103139.72;7361472;19;19929;-65
2023/01/22 11:24:35;;;;;;;;;;;;;;;4.93;81.27;103134.38;7360708;19;21604;-60
2023/01/22 11:27:05;;;;;;;;;;;;;;;4.99;81.44;103131.53;7361387;19;19930;-62
2023/01/22 11:29:35;;;;;;;;;;;;;;;5.05;81.18;103139.97;7360745;19;19915;-61
2023/01/22 11:32:05;;;;;;;;;;;;;;;5.15;81.55;103133.47;7360495;19;19987;-63
2023/01/22 11:34:35;;;;;;;;;;;;;;;5.22;81.03;103147.16;7359574;19;19948;-64
2023/01/22 11:37:08;;;;;;;;;;;;;;;5.30;80.86;103141.59;7358648;19;19923;-65
2023/01/22 11:39:36;;;;;;;;;;;;;;;5.36;80.66;103138.75;7358954;19;20023;-64
2023/01/22 11:42:04;;;;;;;;;;;;;;;5.39;80.35;103141.22;7362484;19;20347;-61
2023/01/22 11:44:33;;;;;;;;;;;;;;;5.43;80.14;103130.63;7362230;19;19919;-62
2023/01/22 11:47:03;;;;;;;;;;;;;;;5.50;80.34;103126.84;7358483;19;19915;-62
2023/01/22 11:49:31;;;;;;;;;;;;;;;5.56;79.76;103125.75;7361651;19;19942;-59
2023/01/22 11:52:01;;;;;;;;;;;;;;;5.62;79.67;103137.69;7362106;19;19919;-64
2023/01/22 11:54:31;;;;;;;;;;;;;;;5.68;79.66;103137.44;7359474;19;20399;-61
2023/01/22 11:56:58;;;;;;;;;;;;;;;5.77;79.45;103142.28;7359130;19;19957;-64
2023/01/22 11:59:28;;;;;;;;;;;;;;;5.84;78.89;103139.31;7361395;19;19922;-62
2023/01/22 12:01:58;;;;;;;;;;;;;;;5.92;79.08;103144.28;7359915;19;19938;-63
2023/01/22 12:04:28;;;;;;;;;;;;;;;5.94;78.73;103145.06;7360600;19;19923;-63
2023/01/22 12:06:58;;;;;;;;;;;;;;;5.95;78.46;103131.91;7363070;19;19929;-64
2023/01/22 12:09:28;;;;;;;;;;;;;;;5.97;78.49;103134.47;7359983;19;20391;-64
2023/01/22 12:11:55;;;;;;;;;;;;;;;5.98;77.99;103129.19;7360742;19;20654;-63
2023/01/22 12:14:25;;;;;;;;;;;;;;;6.06;78.02;103128.84;7360425;19;19923;-64
2023/01/22 12:16:55;;;;;;;;;;;;;;;6.11;78.24;103132.09;7361084;19;19941;-65
2023/01/22 12:19:29;;;;;;;;;;;;;;;6.20;78.38;103123.88;7349371;19;20502;-64
2023/01/22 12:21:59;;;;;;;;;;;;;;;6.24;77.54;103122.84;7358498;19;19926;-60
2023/01/22 12:24:29;;;;;;;;;;;;;;;6.27;77.28;103122.69;7360188;19;20164;-64
2023/01/22 12:26:59;;;;;;;;;;;;;;;6.28;77.48;103124.38;7359912;19;20339;-62
2023/01/22 12:29:28;;;;;;;;;;;;;;;6.28;77.38;103118.31;7362210;19;19927;-67
2023/01/22 12:31:59;;;;;;;;;;;;;;;6.30;77.27;103113.84;7359057;19;19926;-65
2023/01/22 12:34:30;;;;;;;;;;;;;;;6.32;77.90;103114.63;7358263;19;20580;-64
2023/01/22 12:36:59;;;;;;;;;;;;;;;6.33;77.53;103122.41;7357965;19;19919;-62
2023/01/22 12:39:26;;;;;;;;;;;;;;;6.34;77.82;103111.06;7357317;19;19911;-64
2023/01/22 12:41:54;;;;;;;;;;;;;;;6.43;80.24;103113.25;7359269;19;19963;-61
2023/01/22 12:44:24;;;;;;;;;;;;;;;6.54;79.56;103119.75;7357004;19;20340;-63
2023/01/22 12:46:52;;;;;;;;;;;;;;;6.77;83.24;103123.00;7361127;19;20011;-64
2023/01/22 12:49:19;;;;;;;;;;;;;;;7.10;83.76;103119.72;7360819;19;20329;-63
2023/01/22 12:51:49;;;;;;;;;;;;;;;7.21;80.29;103117.44;7358612;19;19967;-64
2023/01/22 12:54:19;;;;;;;;;;;;;;;7.20;77.25;103119.22;7356787;19;19929;-64
2023/01/22 12:56:47;;;;;;;;;;;;;;;7.17;76.06;103121.09;7357416;19;19919;-63
2023/01/22 12:59:17;;;;;;;;;;;;;;;7.13;75.30;103103.88;7359825;19;20484;-66
2023/01/22 13:01:44;;;;;;;;;;;;;;;7.09;75.21;103108.41;7354749;19;20547;-64
2023/01/22 13:04:11;;;;;;;;;;;;;;;7.02;74.90;103100.91;7357356;19;19922;-62